Terminal Aerodrome Forecast
Issued by NWS

Home | Current Version | Previous Version | Text Only | Print | Product List | Glossary On
Versions: 1 2 3 4 5 6 7 8 9 10 11 12 13 14 15 16 17 18 19 20 21 22 23 24 25 26 27 28 29 30 31 32 33 34
000
FTUS46 KPQR 300213 AAA
TAFONP
TAF AMD
KONP 300213Z 3002/3024 34006KT 4SM -DZ BR BKN003 OVC007
     FM301000 VRB03KT 5SM -DZ BR OVC005
      TEMPO 3010/3014 2SM -DZ
     FM301800 24005KT 5SM BR OVC010=

USA.gov is the U.S. government's official web portal to all federal, state and local government web resources and services.